createdAt,value
2019-04-07T00:00:27.806Z,99112.34
2019-04-07T00:02:57.379Z,99113.66
2019-04-07T00:05:26.827Z,99109.07
2019-04-07T00:07:57.465Z,99110.47
2019-04-07T00:10:27.219Z,99111.33
2019-04-07T00:12:57.290Z,99108.96
2019-04-07T00:15:26.875Z,99110.58
2019-04-07T00:17:56.338Z,99113.08
2019-04-07T00:20:25.838Z,99108.03
2019-04-07T00:22:55.283Z,99109.16
2019-04-07T00:25:25.120Z,99107.66
2019-04-07T00:27:54.671Z,99107.47
2019-04-07T00:30:24.175Z,99105.80
2019-04-07T00:32:53.679Z,99108.80
2019-04-07T00:35:30.500Z,99109.53
2019-04-07T00:37:54.504Z,99107.84
2019-04-07T00:40:24.107Z,99112.89
2019-04-07T00:42:53.564Z,99108.58
2019-04-07T00:45:23.058Z,99104.58
2019-04-07T00:47:52.639Z,99104.45
2019-04-07T00:50:22.088Z,99102.67
2019-04-07T00:52:51.492Z,99105.03
2019-04-07T00:55:21.018Z,99109.59
2019-04-07T00:57:50.796Z,99100.80
2019-04-07T01:00:22.020Z,99097.72
2019-04-07T01:02:51.861Z,99098.48
2019-04-07T01:05:33.736Z,99093.14
2019-04-07T01:07:52.592Z,99099.39
2019-04-07T01:10:22.070Z,99094.55
2019-04-07T01:12:52.166Z,99096.98
2019-04-07T01:15:21.747Z,99094.17
2019-04-07T01:17:51.291Z,99096.34
2019-04-07T01:20:20.720Z,99089.42
2019-04-07T01:22:50.182Z,99088.19
2019-04-07T01:25:20.299Z,99089.31
2019-04-07T01:27:50.037Z,99085.00
2019-04-07T01:30:19.978Z,99082.00
2019-04-07T01:32:49.948Z,99077.87
2019-04-07T01:35:20.157Z,99072.36
2019-04-07T01:37:49.802Z,99074.91
2019-04-07T01:40:19.853Z,99070.02
2019-04-07T01:43:00.055Z,99067.39
2019-04-07T01:45:47.301Z,99070.41
2019-04-07T01:48:34.674Z,99064.78
2019-04-07T01:51:11.873Z,99065.79
2019-04-07T01:53:42.917Z,99057.08
2019-04-07T01:56:30.451Z,99055.39
2019-04-07T01:59:02.623Z,99051.84
2019-04-07T02:01:36.468Z,99046.03
2019-04-07T02:04:08.102Z,99047.99
2019-04-07T02:06:55.434Z,99046.23
2019-04-07T02:09:26.503Z,99046.50
2019-04-07T02:12:03.460Z,99046.81
2019-04-07T02:14:46.695Z,99042.13
2019-04-07T02:17:23.415Z,99042.78
2019-04-07T02:19:54.952Z,99034.59
2019-04-07T02:22:42.575Z,99041.92
2019-04-07T02:25:14.026Z,99034.75
2019-04-07T02:27:45.890Z,99033.96
2019-04-07T02:30:23.695Z,99034.33
2019-04-07T02:32:58.285Z,99028.14
2019-04-07T02:38:32.445Z,99038.20
2019-04-07T02:41:04.265Z,99032.94
2019-04-07T02:46:51.670Z,99034.23
2019-04-07T02:49:39.292Z,99028.79
2019-04-07T02:52:14.485Z,99026.17
2019-04-07T02:55:02.575Z,99031.98
2019-04-07T02:57:33.965Z,99034.53
2019-04-07T03:00:09.354Z,99031.08
2019-04-07T03:02:46.312Z,99032.71
2019-04-07T03:05:20.948Z,99035.25
2019-04-07T03:08:04.478Z,99029.48
2019-04-07T03:10:51.475Z,99034.96
2019-04-07T03:13:29.070Z,99027.52
2019-04-07T03:16:12.241Z,99026.39
2019-04-07T03:18:44.280Z,99024.14
2019-04-07T03:21:15.753Z,99024.86
2019-04-07T03:23:47.506Z,99022.68
2019-04-07T03:26:33.849Z,99025.87
2019-04-07T03:29:05.313Z,99025.30
2019-04-07T03:31:53.664Z,99024.81
2019-04-07T03:34:44.776Z,99023.16
2019-04-07T03:37:34.305Z,99019.23
2019-04-07T03:40:13.850Z,99017.74
2019-04-07T03:42:55.189Z,99015.05
2019-04-07T03:45:32.558Z,99016.66
2019-04-07T03:48:07.074Z,99022.25
2019-04-07T03:50:54.809Z,99019.95
2019-04-07T03:53:35.690Z,99018.02
2019-04-07T03:59:20.053Z,99028.69
2019-04-07T04:01:54.155Z,99021.26
2019-04-07T04:07:22.865Z,99012.98
2019-04-07T04:10:01.598Z,99017.74
2019-04-07T04:15:18.361Z,99019.45
2019-04-07T04:17:48.217Z,99027.11
2019-04-07T04:20:17.768Z,99024.87
2019-04-07T04:22:47.322Z,99023.50
2019-04-07T04:25:17.237Z,99025.05
2019-04-07T04:27:46.828Z,99029.48
2019-04-07T04:30:16.879Z,99030.61
2019-04-07T04:32:46.500Z,99033.28
2019-04-07T04:35:16.939Z,99035.86
2019-04-07T04:37:51.444Z,99036.45
2019-04-07T04:40:17.926Z,99035.37
2019-04-07T04:42:48.559Z,99033.14
2019-04-07T04:45:18.103Z,99034.84
2019-04-07T04:47:48.233Z,99031.51
2019-04-07T04:50:18.409Z,99037.69
2019-04-07T04:52:48.712Z,99035.73
2019-04-07T04:55:18.898Z,99035.30
2019-04-07T04:57:48.484Z,99037.62
2019-04-07T05:00:18.794Z,99035.37
2019-04-07T05:02:49.459Z,99041.22
2019-04-07T05:05:19.050Z,99041.55
2019-04-07T05:07:57.701Z,99046.45
2019-04-07T05:10:19.829Z,99048.82
2019-04-07T05:12:49.212Z,99048.64
2019-04-07T05:15:18.661Z,99040.90
2019-04-07T05:17:48.015Z,99038.39
2019-04-07T05:20:17.486Z,99035.38
2019-04-07T05:22:47.510Z,99036.64
2019-04-07T05:25:17.403Z,99037.22
2019-04-07T05:27:47.070Z,99037.39
2019-04-07T05:30:16.833Z,99038.13
2019-04-07T05:32:46.909Z,99038.09
2019-04-07T05:35:16.514Z,99032.05
2019-04-07T05:37:46.013Z,99037.73
2019-04-07T05:40:15.583Z,99044.87
2019-04-07T05:42:45.412Z,99047.39
2019-04-07T05:45:15.173Z,99043.66
2019-04-07T05:47:48.628Z,99042.70
2019-04-07T05:50:16.581Z,99044.41
2019-04-07T05:52:46.592Z,99048.70
2019-04-07T05:55:20.615Z,99042.52
2019-04-07T05:57:48.503Z,99044.47
2019-04-07T06:00:18.935Z,99047.54
2019-04-07T06:02:49.138Z,99047.41
2019-04-07T06:05:19.379Z,99054.77
2019-04-07T06:07:49.097Z,99053.73
2019-04-07T06:10:22.847Z,99051.97
2019-04-07T06:12:49.804Z,99048.77
2019-04-07T06:15:22.256Z,99049.16
2019-04-07T06:17:52.205Z,99056.19
2019-04-07T06:20:22.494Z,99052.13
2019-04-07T06:22:53.627Z,99043.17
2019-04-07T06:25:23.403Z,99045.91
2019-04-07T06:27:53.243Z,99041.63
2019-04-07T06:30:24.124Z,99046.72
2019-04-07T06:32:53.828Z,99049.20
2019-04-07T06:35:23.491Z,99056.21
2019-04-07T06:37:53.140Z,99055.55
2019-04-07T06:40:23.122Z,99057.08
2019-04-07T06:42:53.345Z,99060.61
2019-04-07T06:45:33.404Z,99061.53
2019-04-07T06:48:09.179Z,99058.36
2019-04-07T06:50:49.397Z,99065.98
2019-04-07T06:53:17.467Z,99070.44
2019-04-07T06:55:46.098Z,99071.87
2019-04-07T06:58:33.218Z,99069.82
2019-04-07T07:01:04.662Z,99069.52
2019-04-07T07:03:51.480Z,99069.47
2019-04-07T07:06:29.446Z,99072.46
2019-04-07T07:09:07.302Z,99067.62
2019-04-07T07:11:55.279Z,99068.09
2019-04-07T07:14:44.969Z,99063.87
2019-04-07T07:17:31.256Z,99067.97
2019-04-07T07:20:05.299Z,99073.09
2019-04-07T07:22:49.459Z,99077.48
2019-04-07T07:25:20.379Z,99073.23
2019-04-07T07:27:50.055Z,99083.79
2019-04-07T07:30:20.312Z,99076.78
2019-04-07T07:32:50.771Z,99085.55
2019-04-07T07:35:20.293Z,99087.67
2019-04-07T07:37:50.038Z,99084.53
2019-04-07T07:40:19.614Z,99084.85
2019-04-07T07:42:50.960Z,99082.97
2019-04-07T07:45:20.583Z,99081.24
2019-04-07T07:47:53.246Z,99082.94
2019-04-07T07:50:21.260Z,99083.02
2019-04-07T07:52:53.356Z,99083.38
2019-04-07T07:55:22.007Z,99081.13
2019-04-07T07:57:55.499Z,99082.79
2019-04-07T08:00:22.855Z,99077.41
2019-04-07T08:02:53.454Z,99079.66
2019-04-07T08:05:23.874Z,99075.91
2019-04-07T08:07:54.057Z,99084.26
2019-04-07T08:10:25.361Z,99082.84
2019-04-07T08:12:54.945Z,99086.39
2019-04-07T08:15:29.670Z,99077.98
2019-04-07T08:17:56.299Z,99075.84
2019-04-07T08:20:25.886Z,99075.70
2019-04-07T08:22:56.096Z,99080.64
2019-04-07T08:25:26.639Z,99079.55
2019-04-07T08:27:57.285Z,99070.57
2019-04-07T08:30:27.203Z,99067.79
2019-04-07T08:32:58.596Z,99078.24
2019-04-07T08:35:29.805Z,99084.38
2019-04-07T08:37:59.757Z,99082.57
2019-04-07T08:40:29.434Z,99080.29
2019-04-07T08:42:59.398Z,99082.55
2019-04-07T08:45:31.672Z,99083.58
2019-04-07T08:48:00.771Z,99074.90
2019-04-07T08:50:31.034Z,99077.77
2019-04-07T08:53:00.565Z,99077.30
2019-04-07T08:55:30.901Z,99074.42
2019-04-07T08:58:02.484Z,99075.70
2019-04-07T09:00:33.609Z,99073.81
2019-04-07T09:03:10.569Z,99070.56
2019-04-07T09:05:34.419Z,99078.11
2019-04-07T09:08:06.074Z,99070.97
2019-04-07T09:10:37.183Z,99066.74
2019-04-07T09:13:09.264Z,99068.58
2019-04-07T09:15:43.587Z,99062.43
2019-04-07T09:18:19.195Z,99056.70
2019-04-07T09:20:53.237Z,99061.39
2019-04-07T09:23:27.567Z,99055.76
2019-04-07T09:26:16.085Z,99054.45
2019-04-07T09:28:53.431Z,99055.01
2019-04-07T09:31:23.294Z,99058.37
2019-04-07T09:33:55.084Z,99060.05
2019-04-07T09:36:31.595Z,99060.50
2019-04-07T09:39:03.768Z,99059.30
2019-04-07T09:41:52.647Z,99061.34
2019-04-07T09:44:30.869Z,99053.10
2019-04-07T09:47:04.309Z,99056.09
2019-04-07T09:49:35.440Z,99053.42
2019-04-07T09:52:23.385Z,99041.47
2019-04-07T09:55:01.042Z,99041.84
2019-04-07T09:57:39.782Z,99029.00
2019-04-07T10:00:14.500Z,99035.59
2019-04-07T10:02:49.144Z,99033.31
2019-04-07T10:05:20.129Z,99032.73
2019-04-07T10:08:11.977Z,99030.34
2019-04-07T10:10:49.797Z,99031.70
2019-04-07T10:13:27.447Z,99026.91
2019-04-07T10:16:02.279Z,99028.87
2019-04-07T10:18:50.862Z,99025.47
2019-04-07T10:21:21.995Z,99025.47
2019-04-07T10:23:53.036Z,99021.12
2019-04-07T10:26:37.973Z,99016.55
2019-04-07T10:29:18.714Z,99019.25
2019-04-07T10:31:56.586Z,99015.13
2019-04-07T10:34:30.943Z,99011.92
2019-04-07T10:37:08.273Z,99008.52
2019-04-07T10:39:43.221Z,99011.97
2019-04-07T10:42:23.635Z,99009.98
2019-04-07T10:44:54.701Z,99007.34
2019-04-07T10:47:26.052Z,99004.80
2019-04-07T10:50:07.208Z,99004.32
2019-04-07T10:52:52.094Z,99001.45
2019-04-07T10:55:23.107Z,98993.79
2019-04-07T10:58:10.673Z,98994.81
2019-04-07T11:00:45.366Z,98993.08
2019-04-07T11:03:33.064Z,98997.09
2019-04-07T11:06:13.759Z,98997.41
2019-04-07T11:08:56.746Z,98994.02
2019-04-07T11:11:31.454Z,98992.84
2019-04-07T11:14:05.841Z,98986.80
2019-04-07T11:16:37.678Z,98982.10
2019-04-07T11:21:47.746Z,98983.87
2019-04-07T11:24:24.723Z,98978.98
2019-04-07T11:26:59.325Z,98977.51
2019-04-07T11:29:33.736Z,98981.28
2019-04-07T11:32:05.571Z,98981.18
2019-04-07T11:34:51.630Z,98976.63
2019-04-07T11:37:25.400Z,98963.09
2019-04-07T11:39:59.051Z,98964.09
2019-04-07T11:42:37.031Z,98966.58
2019-04-07T11:45:10.206Z,98964.59
2019-04-07T11:47:50.927Z,98961.16
2019-04-07T11:50:34.357Z,98953.81
2019-04-07T11:53:11.545Z,98950.76
2019-04-07T11:55:52.257Z,98946.55
2019-04-07T11:58:39.834Z,98943.38
2019-04-07T12:01:14.824Z,98938.64
2019-04-07T12:03:52.152Z,98939.39
2019-04-07T12:06:38.441Z,98938.69
2019-04-07T12:09:25.920Z,98934.45
2019-04-07T12:12:03.731Z,98933.39
2019-04-07T12:14:38.495Z,98928.28
2019-04-07T12:17:18.864Z,98925.58
2019-04-07T12:19:57.147Z,98926.86
2019-04-07T12:22:29.045Z,98920.98
2019-04-07T12:25:12.531Z,98920.80
2019-04-07T12:27:47.145Z,98921.33
2019-04-07T12:30:22.517Z,98920.98
2019-04-07T12:32:59.767Z,98910.83
2019-04-07T12:35:50.929Z,98913.69
2019-04-07T12:38:22.841Z,98912.63
2019-04-07T12:41:16.583Z,98910.45
2019-04-07T12:44:01.725Z,98910.68
2019-04-07T12:46:33.260Z,98909.67
2019-04-07T12:49:06.747Z,98909.67
2019-04-07T12:51:52.401Z,98907.52
2019-04-07T12:54:28.815Z,98909.50
2019-04-07T12:57:02.565Z,98904.26
2019-04-07T12:59:33.641Z,98903.21
2019-04-07T13:02:11.433Z,98902.05
2019-04-07T13:04:59.702Z,98906.22
2019-04-07T13:07:40.320Z,98905.39
2019-04-07T13:10:26.852Z,98900.56
2019-04-07T13:13:07.993Z,98901.46
2019-04-07T13:18:37.804Z,98895.82
2019-04-07T13:21:22.978Z,98895.39
2019-04-07T13:23:52.678Z,98896.68
2019-04-07T13:26:41.215Z,98893.65
2019-04-07T13:29:12.931Z,98898.41
2019-04-07T13:31:44.128Z,98900.09
2019-04-07T13:34:21.155Z,98891.13
2019-04-07T13:37:08.049Z,98893.83
2019-04-07T13:39:44.853Z,98889.19
2019-04-07T13:42:31.236Z,98885.16
2019-04-07T13:45:03.964Z,98884.86
2019-04-07T13:47:42.260Z,98883.41
2019-04-07T13:50:30.034Z,98887.59
2019-04-07T13:53:16.484Z,98885.20
2019-04-07T13:55:47.613Z,98879.53
2019-04-07T13:58:37.003Z,98883.83
2019-04-07T14:01:21.094Z,98882.09
2019-04-07T14:04:02.420Z,98880.20
2019-04-07T14:06:33.992Z,98881.13
2019-04-07T14:09:22.890Z,98878.60
2019-04-07T14:12:06.384Z,98870.48
2019-04-07T14:14:45.937Z,98867.03
2019-04-07T14:17:35.219Z,98870.47
2019-04-07T14:20:11.900Z,98875.19
2019-04-07T14:22:43.014Z,98874.36
2019-04-07T14:25:26.770Z,98871.98
2019-04-07T14:28:14.401Z,98872.77
2019-04-07T14:31:02.096Z,98875.13
2019-04-07T14:33:49.441Z,98866.25
2019-04-07T14:36:23.329Z,98866.84
2019-04-07T14:38:55.891Z,98866.92
2019-04-07T14:41:33.284Z,98867.44
2019-04-07T14:44:21.422Z,98864.73
2019-04-07T14:47:08.884Z,98866.82
2019-04-07T14:49:56.281Z,98863.53
2019-04-07T14:52:28.258Z,98867.69
2019-04-07T14:55:15.650Z,98863.88
2019-04-07T15:00:49.113Z,98865.97
2019-04-07T15:03:18.816Z,98865.22
2019-04-07T15:08:31.935Z,98858.82
2019-04-07T15:11:04.719Z,98863.55
2019-04-07T15:13:34.326Z,98857.81
2019-04-07T15:16:04.165Z,98862.12
2019-04-07T15:18:33.919Z,98864.78
2019-04-07T15:21:03.603Z,98859.26
2019-04-07T15:23:33.491Z,98859.09
2019-04-07T15:26:03.426Z,98855.40
2019-04-07T15:28:34.965Z,98853.27
2019-04-07T15:31:04.469Z,98851.88
2019-04-07T15:33:34.413Z,98847.11
2019-04-07T15:36:07.650Z,98841.69
2019-04-07T15:38:40.311Z,98848.25
2019-04-07T15:41:15.309Z,98847.38
2019-04-07T15:43:41.148Z,98845.84
2019-04-07T15:46:10.683Z,98853.88
2019-04-07T15:48:40.342Z,98848.06
2019-04-07T15:51:09.873Z,98847.61
2019-04-07T15:53:40.215Z,98848.61
2019-04-07T15:56:13.050Z,98853.28
2019-04-07T15:58:41.959Z,98852.20
2019-04-07T16:01:13.873Z,98852.30
2019-04-07T16:03:47.682Z,98854.84
2019-04-07T16:06:16.305Z,98849.23
2019-04-07T16:08:46.692Z,98852.90
2019-04-07T16:11:17.661Z,98848.67
2019-04-07T16:13:47.724Z,98844.75
2019-04-07T16:16:17.759Z,98842.00
2019-04-07T16:18:47.337Z,98848.03
2019-04-07T16:21:18.058Z,98852.70
2019-04-07T16:23:50.218Z,98855.28
2019-04-07T16:26:19.701Z,98858.52
2019-04-07T16:28:51.972Z,98856.11
2019-04-07T16:31:24.257Z,98857.13
2019-04-07T16:33:54.051Z,98859.09
2019-04-07T16:36:25.461Z,98855.05
2019-04-07T16:39:00.377Z,98855.94
2019-04-07T16:41:29.346Z,98860.88
2019-04-07T16:43:59.006Z,98856.94
2019-04-07T16:46:28.477Z,98861.52
2019-04-07T16:48:58.722Z,98857.80
2019-04-07T16:51:30.681Z,98861.30
2019-04-07T16:54:00.332Z,98857.77
2019-04-07T16:56:29.870Z,98858.64
2019-04-07T16:59:01.308Z,98856.22
2019-04-07T17:01:31.421Z,98849.63
2019-04-07T17:04:01.032Z,98856.63
2019-04-07T17:06:34.691Z,98860.91
2019-04-07T17:09:02.507Z,98858.86
2019-04-07T17:11:32.359Z,98864.00
2019-04-07T17:14:03.223Z,98864.46
2019-04-07T17:16:33.478Z,98868.47
2019-04-07T17:19:05.952Z,98873.00
2019-04-07T17:21:41.160Z,98870.37
2019-04-07T17:24:12.055Z,98871.59
2019-04-07T17:26:44.170Z,98868.50
2019-04-07T17:29:17.137Z,98871.73
2019-04-07T17:31:45.607Z,98878.82
2019-04-07T17:34:15.677Z,98882.41
2019-04-07T17:36:48.480Z,98877.38
2019-04-07T17:39:37.732Z,98879.31
2019-04-07T17:42:06.345Z,98882.93
2019-04-07T17:47:25.925Z,98885.30
2019-04-07T17:50:04.252Z,98885.55
2019-04-07T17:52:40.392Z,98895.59
2019-04-07T17:55:28.040Z,98898.23
2019-04-07T17:58:07.896Z,98901.05
2019-04-07T18:00:56.443Z,98902.51
2019-04-07T18:03:30.285Z,98902.37
2019-04-07T18:06:11.166Z,98906.33
2019-04-07T18:09:07.859Z,98907.41
2019-04-07T18:11:35.063Z,98901.90
2019-04-07T18:14:15.888Z,98909.23
2019-04-07T18:16:52.809Z,98907.55
2019-04-07T18:19:36.292Z,98906.48
2019-04-07T18:22:08.173Z,98910.09
2019-04-07T18:24:46.085Z,98912.59
2019-04-07T18:27:21.136Z,98911.75
2019-04-07T18:29:52.773Z,98910.57
2019-04-07T18:32:32.973Z,98909.84
2019-04-07T18:35:07.564Z,98907.08
2019-04-07T18:37:55.772Z,98905.66
2019-04-07T18:40:46.375Z,98902.20
2019-04-07T18:43:21.403Z,98904.20
2019-04-07T18:46:05.128Z,98904.45
2019-04-07T18:54:21.390Z,98903.02
2019-04-07T18:57:09.834Z,98903.75
2019-04-07T18:59:42.981Z,98895.83
2019-04-07T19:02:16.431Z,98903.27
2019-04-07T19:04:50.103Z,98898.34
2019-04-07T19:07:22.530Z,98893.20
2019-04-07T19:10:16.463Z,98892.36
2019-04-07T19:18:30.806Z,98894.89
2019-04-07T19:21:20.430Z,98897.77
2019-04-07T19:24:17.091Z,98888.05
2019-04-07T19:27:11.891Z,98896.44
2019-04-07T19:29:44.265Z,98887.33
2019-04-07T19:32:20.449Z,98889.13
2019-04-07T19:34:57.233Z,98886.74
2019-04-07T19:37:34.662Z,98892.95
2019-04-07T19:40:09.808Z,98887.20
2019-04-07T19:42:43.979Z,98886.97
2019-04-07T19:45:28.810Z,98882.67
2019-04-07T19:48:10.490Z,98883.39
2019-04-07T19:50:42.564Z,98887.21
2019-04-07T19:53:15.064Z,98885.03
2019-04-07T19:55:56.847Z,98890.64
2019-04-07T19:58:36.121Z,98886.10
2019-04-07T20:01:06.500Z,98887.28
2019-04-07T20:03:47.325Z,98885.03
2019-04-07T20:06:23.123Z,98886.59
2019-04-07T20:09:11.308Z,98879.27
2019-04-07T20:11:51.466Z,98881.91
2019-04-07T20:14:46.595Z,98875.67
2019-04-07T20:17:29.489Z,98868.59
2019-04-07T20:22:41.826Z,98867.76
2019-04-07T20:25:15.887Z,98871.72
2019-04-07T20:28:02.306Z,98870.05
2019-04-07T20:33:41.442Z,98867.86
2019-04-07T20:36:19.339Z,98865.61
2019-04-07T20:38:45.371Z,98855.77
2019-04-07T20:41:17.088Z,98862.98
2019-04-07T20:46:34.508Z,98863.33
2019-04-07T20:49:15.932Z,98861.52
2019-04-07T20:52:03.152Z,98861.53
2019-04-07T20:54:50.901Z,98867.04
2019-04-07T20:57:24.841Z,98869.42
2019-04-07T21:00:03.483Z,98866.55
2019-04-07T21:02:35.072Z,98867.77
2019-04-07T21:05:25.712Z,98860.84
2019-04-07T21:10:58.954Z,98862.25
2019-04-07T21:13:30.149Z,98855.91
2019-04-07T21:16:23.666Z,98856.27
2019-04-07T21:19:04.246Z,98854.46
2019-04-07T21:21:34.621Z,98849.09
2019-04-07T21:24:21.882Z,98841.44
2019-04-07T21:27:10.087Z,98845.73
2019-04-07T21:29:47.905Z,98840.01
2019-04-07T21:32:34.109Z,98841.33
2019-04-07T21:35:05.290Z,98837.86
2019-04-07T21:37:45.085Z,98833.18
2019-04-07T21:40:15.485Z,98836.41
2019-04-07T21:42:48.293Z,98827.08
2019-04-07T21:45:32.673Z,98831.72
2019-04-07T21:48:07.388Z,98825.38
2019-04-07T21:50:41.129Z,98827.42
2019-04-07T21:53:12.113Z,98822.16
2019-04-07T21:55:44.302Z,98815.58
2019-04-07T21:58:16.583Z,98822.06
2019-04-07T22:01:02.848Z,98822.75
2019-04-07T22:03:39.445Z,98818.34
2019-04-07T22:06:12.040Z,98818.94
2019-04-07T22:08:45.345Z,98817.13
2019-04-07T22:11:14.298Z,98812.59
2019-04-07T22:13:43.849Z,98810.66
2019-04-07T22:16:14.234Z,98810.06
2019-04-07T22:18:44.948Z,98809.12
2019-04-07T22:21:14.927Z,98807.67
2019-04-07T22:23:44.484Z,98815.34
2019-04-07T22:26:17.795Z,98807.78
2019-04-07T22:28:45.126Z,98808.52
2019-04-07T22:31:16.915Z,98811.39
2019-04-07T22:33:46.643Z,98808.89
2019-04-07T22:36:16.750Z,98806.36
2019-04-07T22:38:46.260Z,98805.39
2019-04-07T22:41:15.695Z,98800.27
2019-04-07T22:43:47.842Z,98801.10
2019-04-07T22:46:21.326Z,98805.16
2019-04-07T22:48:48.041Z,98800.00
2019-04-07T22:51:17.608Z,98808.52
2019-04-07T22:53:47.596Z,98799.55
2019-04-07T22:56:18.068Z,98800.97
2019-04-07T22:58:48.555Z,98797.74
2019-04-07T23:01:18.615Z,98794.63
2019-04-07T23:03:48.145Z,98801.58
2019-04-07T23:06:17.623Z,98789.97
2019-04-07T23:08:47.216Z,98785.40
2019-04-07T23:11:16.686Z,98789.36
2019-04-07T23:13:47.186Z,98783.50
2019-04-07T23:16:17.924Z,98785.89
2019-04-07T23:18:48.055Z,98783.16
2019-04-07T23:21:17.505Z,98780.73
2019-04-07T23:23:46.968Z,98778.58
2019-04-07T23:26:16.414Z,98766.98
2019-04-07T23:28:47.089Z,98777.17
2019-04-07T23:31:17.067Z,98771.04
2019-04-07T23:33:46.668Z,98766.26
2019-04-07T23:36:16.157Z,98761.13
2019-04-07T23:38:45.618Z,98762.55
2019-04-07T23:41:15.915Z,98759.42
2019-04-07T23:43:45.981Z,98760.64
2019-04-07T23:46:23.968Z,98757.03
2019-04-07T23:48:47.602Z,98753.58
2019-04-07T23:51:17.250Z,98756.70
2019-04-07T23:54:31.442Z,98745.79
2019-04-07T23:57:00.934Z,98746.03
2019-04-07T23:59:30.538Z,98742.33
